Terminal Aerodrome Forecast
Issued by NWS

Home | Current Version | Previous Version | Text Only | Print | Product List | Glossary On
Versions: 1 2 3 4 5 6 7 8 9 10 11 12 13 14 15
398
FTUS43 KSGF 210819 AAA
TAFJLN
TAF AMD
KJLN 210819Z 2108/2206 00000KT 1/2SM FG BKN002
      TEMPO 2109/2113 1/4SM FG VV002
     FM211400 07005KT P6SM FEW250=

USA.gov is the U.S. government's official web portal to all federal, state and local government web resources and services.